Time;durP1;ratioP1;P1;durP2;ratioP2;P2;SDS_P1;SDS_P2;PMS_P1;PMS_P2;Temp;Humidity;BMP_temperature;BMP_pressure;BME280_temperature;BME280_humidity;BME280_pressure;Samples;Min_cycle;Max_cycle;Signal;HPM_P1;HPM_P2
2021/12/28 00:00:16;;;;;;;1.20;1.20;;;8.10;99.90;;;;;;5066017;28;20190;-85
2021/12/28 00:02:45;;;;;;;1.70;1.60;;;8.30;99.90;;;;;;5067819;28;20202;-84
2021/12/28 00:05:11;;;;;;;0.57;0.57;;;8.30;99.90;;;;;;5065808;28;20188;-85
2021/12/28 00:07:37;;;;;;;1.10;0.43;;;8.20;99.90;;;;;;5065207;28;20282;-85
2021/12/28 00:10:05;;;;;;;1.27;1.13;;;8.10;99.90;;;;;;5066085;28;20185;-85
2021/12/28 00:12:34;;;;;;;0.70;0.70;;;8.20;99.90;;;;;;5083841;28;20297;-83
2021/12/28 00:15:07;;;;;;;0.67;0.67;;;8.00;99.90;;;;;;5067064;28;20203;-84
2021/12/28 00:20:17;;;;;;;1.27;1.17;;;8.20;99.90;;;;;;5067611;28;20256;-85
2021/12/28 00:22:42;;;;;;;1.23;0.73;;;8.00;99.90;;;;;;5061496;28;20577;-85
2021/12/28 00:25:10;;;;;;;0.80;0.80;;;8.00;99.90;;;;;;5065383;28;20173;-85
2021/12/28 00:27:36;;;;;;;1.53;0.63;;;8.10;99.90;;;;;;5063960;28;20222;-85
2021/12/28 00:30:03;;;;;;;0.37;0.37;;;8.30;99.90;;;;;;5064835;28;20188;-84
2021/12/28 00:32:28;;;;;;;0.77;0.73;;;8.30;99.90;;;;;;5061035;28;20215;-84
2021/12/28 00:34:54;;;;;;;0.80;0.80;;;8.20;99.90;;;;;;5063917;28;20189;-85
2021/12/28 00:37:19;;;;;;;2.17;1.70;;;8.10;99.90;;;;;;5062036;28;20187;-84
2021/12/28 00:39:45;;;;;;;1.20;1.10;;;8.00;99.90;;;;;;5057630;28;20178;-84
2021/12/28 00:42:10;;;;;;;1.17;1.13;;;7.90;99.90;;;;;;5065029;28;20220;-85
2021/12/28 00:44:36;;;;;;;0.80;0.80;;;7.90;99.90;;;;;;5065549;28;20201;-84
2021/12/28 00:47:02;;;;;;;1.87;1.37;;;7.90;99.90;;;;;;5058022;28;20217;-85
2021/12/28 00:49:27;;;;;;;0.80;0.80;;;7.80;99.90;;;;;;5065307;28;20185;-85
2021/12/28 00:51:55;;;;;;;1.17;1.07;;;7.80;99.90;;;;;;5064300;28;20206;-86
2021/12/28 00:54:20;;;;;;;2.17;0.90;;;7.90;99.90;;;;;;5065244;28;20187;-85
2021/12/28 00:56:46;;;;;;;0.30;0.30;;;7.80;99.90;;;;;;5065453;28;21237;-84
2021/12/28 00:59:12;;;;;;;1.50;0.80;;;7.90;99.90;;;;;;5058904;28;20206;-85
2021/12/28 01:01:37;;;;;;;0.67;0.63;;;8.00;99.90;;;;;;5066051;28;20202;-85
2021/12/28 01:04:03;;;;;;;0.83;0.83;;;8.10;99.90;;;;;;5064984;28;20256;-85
2021/12/28 01:06:29;;;;;;;3.27;0.73;;;8.00;99.90;;;;;;5064021;28;20671;-83
2021/12/28 01:08:54;;;;;;;0.97;0.90;;;7.90;99.90;;;;;;5063674;28;20297;-84
2021/12/28 01:11:21;;;;;;;0.30;0.30;;;7.90;99.90;;;;;;5065498;28;20273;-85
2021/12/28 01:13:47;;;;;;;0.43;0.43;;;7.90;99.90;;;;;;5064443;28;20177;-84
2021/12/28 01:16:16;;;;;;;0.87;0.50;;;8.00;99.90;;;;;;5065131;28;20188;-85
2021/12/28 01:18:41;;;;;;;0.50;0.50;;;8.00;99.90;;;;;;5063116;28;20190;-85
2021/12/28 01:21:08;;;;;;;0.20;0.20;;;8.20;99.90;;;;;;5060748;28;20186;-85
2021/12/28 01:23:33;;;;;;;0.83;0.83;;;8.30;99.90;;;;;;5060056;28;20183;-85
2021/12/28 01:25:59;;;;;;;1.70;0.83;;;8.40;99.90;;;;;;5065234;28;20229;-85
2021/12/28 01:28:24;;;;;;;0.20;0.20;;;8.50;99.90;;;;;;5061083;28;20239;-84
2021/12/28 01:30:51;;;;;;;0.47;0.47;;;8.60;99.90;;;;;;5062073;28;20252;-85
2021/12/28 01:33:16;;;;;;;0.30;0.30;;;8.60;99.90;;;;;;5066677;28;20180;-85
2021/12/28 01:35:42;;;;;;;1.43;0.87;;;8.70;99.90;;;;;;5060305;28;20801;-85
2021/12/28 01:38:08;;;;;;;0.40;0.40;;;8.70;99.90;;;;;;5064270;28;20315;-84
2021/12/28 01:40:37;;;;;;;0.77;0.70;;;8.60;99.90;;;;;;5063339;28;20186;-84
2021/12/28 01:43:11;;;;;;;1.93;0.50;;;8.60;99.90;;;;;;5064342;28;20250;-85
2021/12/28 01:45:46;;;;;;;0.60;0.40;;;8.40;99.90;;;;;;5065414;28;20212;-85
2021/12/28 01:48:19;;;;;;;0.27;0.27;;;8.50;99.90;;;;;;5061621;28;20255;-85
2021/12/28 01:50:45;;;;;;;0.60;0.60;;;8.50;99.90;;;;;;5064319;28;20175;-85
2021/12/28 01:53:12;;;;;;;0.37;0.30;;;8.70;99.90;;;;;;5063054;28;20202;-86
2021/12/28 01:55:41;;;;;;;0.40;0.40;;;8.60;99.90;;;;;;5063284;28;20189;-85
2021/12/28 01:58:06;;;;;;;1.53;0.50;;;8.40;99.90;;;;;;5061651;28;20293;-85
2021/12/28 02:00:33;;;;;;;0.60;0.30;;;8.50;99.90;;;;;;5060846;28;20741;-85
2021/12/28 02:02:59;;;;;;;0.47;0.47;;;8.50;99.90;;;;;;5064508;28;20235;-86
2021/12/28 02:05:25;;;;;;;1.00;0.60;;;8.40;99.90;;;;;;5063295;28;20213;-85
2021/12/28 02:07:51;;;;;;;0.73;0.57;;;8.20;99.90;;;;;;5058730;28;20187;-86
2021/12/28 02:10:17;;;;;;;0.93;0.93;;;8.10;99.90;;;;;;5061650;28;20189;-85
2021/12/28 02:12:43;;;;;;;0.77;0.40;;;8.10;99.90;;;;;;5061778;28;20205;-84
2021/12/28 02:15:13;;;;;;;0.60;0.60;;;8.20;99.90;;;;;;5065248;28;20660;-86
2021/12/28 02:17:39;;;;;;;0.50;0.50;;;8.40;99.90;;;;;;5063453;28;20218;-85
2021/12/28 02:20:18;;;;;;;1.27;0.80;;;8.40;99.90;;;;;;5054776;28;20595;-86
2021/12/28 02:22:43;;;;;;;0.20;0.20;;;8.60;99.90;;;;;;5057722;28;20679;-85
2021/12/28 02:25:11;;;;;;;3.30;0.67;;;8.60;99.90;;;;;;5064032;28;20196;-85
2021/12/28 02:27:38;;;;;;;0.40;0.40;;;8.70;99.90;;;;;;5062252;28;20537;-86
2021/12/28 02:30:06;;;;;;;1.43;0.50;;;8.70;99.90;;;;;;5062484;28;20233;-86
2021/12/28 02:32:32;;;;;;;0.10;0.10;;;8.80;99.90;;;;;;5064048;28;20203;-86
2021/12/28 02:34:58;;;;;;;1.80;0.37;;;8.80;99.90;;;;;;5064344;28;20232;-85
2021/12/28 02:38:17;;;;;;;0.10;0.10;;;8.90;99.90;;;;;;5061842;28;20187;-86
2021/12/28 02:40:44;;;;;;;0.40;0.40;;;8.90;99.90;;;;;;5055775;28;20323;-85
2021/12/28 02:43:12;;;;;;;0.40;0.40;;;8.90;99.90;;;;;;5055951;28;20206;-86
2021/12/28 02:45:52;;;;;;;0.33;0.33;;;8.90;99.90;;;;;;5065171;28;20267;-85
2021/12/28 02:48:19;;;;;;;0.20;0.20;;;9.00;99.90;;;;;;5065305;28;20174;-85
2021/12/28 02:50:48;;;;;;;0.33;0.30;;;9.00;99.90;;;;;;5058341;28;20256;-84
2021/12/28 02:53:16;;;;;;;0.67;0.60;;;9.00;99.90;;;;;;5061471;28;20192;-85
2021/12/28 02:55:42;;;;;;;1.70;0.40;;;9.00;99.90;;;;;;5063275;28;20277;-85
2021/12/28 02:58:12;;;;;;;0.47;0.17;;;9.10;99.90;;;;;;5064908;28;20790;-86
2021/12/28 03:00:45;;;;;;;0.53;0.53;;;9.10;99.90;;;;;;5062027;28;20667;-85
2021/12/28 03:03:20;;;;;;;0.30;0.30;;;9.20;99.90;;;;;;5065818;28;20557;-86
2021/12/28 03:05:48;;;;;;;0.40;0.40;;;9.20;99.90;;;;;;5064122;28;20216;-86
2021/12/28 03:08:16;;;;;;;0.10;0.10;;;9.10;99.90;;;;;;5060700;28;20178;-86
2021/12/28 03:10:43;;;;;;;0.30;0.23;;;9.20;99.90;;;;;;5064622;28;20197;-85
2021/12/28 03:13:12;;;;;;;0.17;0.17;;;9.20;99.90;;;;;;5059887;28;20203;-86
2021/12/28 03:15:38;;;;;;;0.30;0.30;;;9.20;99.90;;;;;;5061433;28;20178;-85
2021/12/28 03:18:04;;;;;;;6.13;0.57;;;9.20;99.90;;;;;;5063319;28;20288;-85
2021/12/28 03:20:29;;;;;;;1.57;0.63;;;9.20;99.90;;;;;;5058669;28;20198;-85
2021/12/28 03:22:55;;;;;;;0.80;0.30;;;9.20;99.90;;;;;;5063857;28;20210;-85
2021/12/28 03:25:21;;;;;;;0.47;0.20;;;9.30;99.90;;;;;;5064280;28;20183;-85
2021/12/28 03:27:47;;;;;;;0.73;0.50;;;9.30;99.90;;;;;;5067329;28;20186;-83
2021/12/28 03:30:15;;;;;;;0.40;0.40;;;9.20;99.90;;;;;;5064864;28;20648;-86
2021/12/28 03:32:42;;;;;;;0.60;0.60;;;9.30;99.90;;;;;;5064481;28;20202;-85
2021/12/28 03:35:10;;;;;;;0.97;0.40;;;9.30;99.90;;;;;;5066163;28;20283;-84
2021/12/28 03:37:36;;;;;;;1.30;0.40;;;9.30;99.90;;;;;;5068153;28;20253;-85
2021/12/28 03:40:08;;;;;;;0.60;0.40;;;9.20;99.90;;;;;;5066212;28;20711;-85
2021/12/28 03:42:34;;;;;;;0.27;0.27;;;9.30;99.90;;;;;;5066516;28;20232;-84
2021/12/28 03:45:00;;;;;;;0.70;0.37;;;9.20;99.90;;;;;;5084018;28;20256;-85
2021/12/28 03:47:25;;;;;;;0.27;0.27;;;9.20;99.90;;;;;;5065562;28;20205;-86
2021/12/28 03:49:51;;;;;;;0.47;0.47;;;9.20;99.90;;;;;;5062093;28;20182;-85
2021/12/28 03:52:17;;;;;;;1.03;0.93;;;9.20;99.90;;;;;;5067277;28;20687;-85
2021/12/28 03:54:43;;;;;;;0.30;0.30;;;9.20;99.90;;;;;;5067173;28;20206;-85
2021/12/28 03:57:09;;;;;;;0.37;0.37;;;9.30;99.90;;;;;;5065857;28;20654;-84
2021/12/28 03:59:34;;;;;;;0.40;0.40;;;9.30;99.90;;;;;;5063832;28;20209;-85
2021/12/28 04:02:00;;;;;;;3.00;0.40;;;9.30;99.90;;;;;;5065508;28;20207;-86
2021/12/28 04:04:26;;;;;;;0.40;0.40;;;9.20;99.90;;;;;;5063537;28;20192;-84
2021/12/28 04:06:51;;;;;;;3.80;0.70;;;9.30;99.90;;;;;;5066544;28;20709;-85
2021/12/28 04:09:33;;;;;;;0.30;0.30;;;9.30;99.90;;;;;;5066279;28;20227;-86
2021/12/28 04:11:59;;;;;;;0.20;0.20;;;9.30;99.90;;;;;;5066297;28;20229;-85
2021/12/28 04:14:24;;;;;;;0.20;0.20;;;9.30;99.90;;;;;;5067476;28;20218;-85
2021/12/28 04:16:50;;;;;;;1.23;0.70;;;9.30;99.90;;;;;;5068455;28;20187;-84
2021/12/28 04:19:15;;;;;;;0.30;0.30;;;9.20;99.90;;;;;;5063322;28;20239;-85
2021/12/28 04:21:41;;;;;;;0.53;0.53;;;9.30;99.90;;;;;;5062062;28;20219;-85
2021/12/28 04:24:06;;;;;;;0.67;0.47;;;9.30;99.90;;;;;;5066215;28;20198;-84
2021/12/28 04:26:32;;;;;;;0.30;0.30;;;9.30;99.90;;;;;;5064980;28;20203;-84
2021/12/28 04:28:57;;;;;;;0.33;0.33;;;9.20;99.90;;;;;;5064608;28;20305;-86
2021/12/28 04:31:23;;;;;;;0.30;0.30;;;9.30;99.90;;;;;;5066498;28;20697;-84
2021/12/28 04:33:49;;;;;;;0.37;0.37;;;9.20;99.90;;;;;;5060675;28;20187;-85
2021/12/28 04:36:16;;;;;;;0.17;0.17;;;9.30;99.90;;;;;;5063044;28;20675;-85
2021/12/28 04:38:44;;;;;;;1.03;0.50;;;9.30;99.90;;;;;;5065189;28;20276;-86
2021/12/28 04:41:10;;;;;;;0.33;0.33;;;9.30;99.90;;;;;;5061901;28;20626;-85
2021/12/28 04:43:37;;;;;;;0.10;0.10;;;9.30;99.90;;;;;;5065741;28;20192;-85
2021/12/28 04:46:04;;;;;;;0.83;0.30;;;9.40;99.90;;;;;;5065975;28;20199;-85
2021/12/28 04:48:30;;;;;;;0.47;0.47;;;9.30;99.90;;;;;;5064595;28;20190;-85
2021/12/28 04:50:56;;;;;;;0.20;0.20;;;9.30;99.90;;;;;;5065478;28;20193;-83
2021/12/28 04:53:22;;;;;;;0.40;0.40;;;9.30;99.90;;;;;;5061621;28;20188;-86
2021/12/28 04:55:50;;;;;;;0.27;0.27;;;9.30;99.90;;;;;;5058192;28;20275;-86
2021/12/28 04:58:17;;;;;;;0.10;0.10;;;9.30;99.90;;;;;;5065335;28;20233;-86
2021/12/28 05:00:44;;;;;;;0.37;0.37;;;9.30;99.90;;;;;;5065601;28;20193;-85
2021/12/28 05:03:11;;;;;;;0.00;0.00;;;9.20;99.90;;;;;;5062643;28;20805;-85
2021/12/28 05:05:40;;;;;;;0.30;0.10;;;9.30;99.90;;;;;;5059664;28;20192;-86
2021/12/28 05:08:06;;;;;;;0.10;0.10;;;9.30;99.90;;;;;;5064529;28;20182;-84
2021/12/28 05:10:33;;;;;;;0.30;0.30;;;9.30;99.90;;;;;;5061411;28;20183;-85
2021/12/28 05:12:59;;;;;;;0.30;0.20;;;9.30;99.90;;;;;;5064253;28;20199;-85
2021/12/28 05:15:24;;;;;;;0.53;0.53;;;9.30;99.90;;;;;;5067045;28;20436;-85
2021/12/28 05:17:50;;;;;;;0.57;0.33;;;9.30;99.90;;;;;;5061368;28;20203;-84
2021/12/28 05:20:15;;;;;;;2.63;0.47;;;9.30;99.90;;;;;;5066232;28;20212;-85
2021/12/28 05:22:42;;;;;;;0.53;0.37;;;9.30;99.90;;;;;;5063715;28;20241;-85
2021/12/28 05:25:08;;;;;;;0.20;0.20;;;9.20;99.90;;;;;;5064656;28;20199;-85
2021/12/28 05:27:35;;;;;;;2.03;0.43;;;9.20;99.90;;;;;;5063784;28;20219;-85
2021/12/28 05:30:01;;;;;;;1.80;1.30;;;9.20;99.90;;;;;;5065768;28;20559;-84
2021/12/28 05:32:27;;;;;;;0.13;0.13;;;9.10;99.90;;;;;;5061441;28;20198;-85
2021/12/28 05:34:52;;;;;;;1.13;0.67;;;9.10;99.90;;;;;;5060943;28;20185;-86
2021/12/28 05:37:18;;;;;;;0.20;0.20;;;9.10;99.90;;;;;;5059362;28;20658;-85
2021/12/28 05:39:43;;;;;;;2.53;0.30;;;9.10;99.90;;;;;;5060231;28;20358;-86
2021/12/28 05:42:09;;;;;;;0.57;0.57;;;9.00;99.90;;;;;;5063523;28;20210;-85
2021/12/28 05:44:35;;;;;;;2.33;0.50;;;9.00;99.90;;;;;;5064733;28;20193;-86
2021/12/28 05:47:00;;;;;;;0.30;0.30;;;8.90;99.90;;;;;;5062732;28;20669;-86
2021/12/28 05:49:26;;;;;;;0.30;0.30;;;8.90;99.90;;;;;;5058284;28;20749;-86
2021/12/28 05:51:53;;;;;;;1.03;0.40;;;8.90;99.90;;;;;;5058340;28;20234;-85
2021/12/28 05:54:19;;;;;;;0.10;0.10;;;8.90;99.90;;;;;;5060953;28;20180;-85
2021/12/28 05:56:45;;;;;;;0.83;0.83;;;8.80;99.90;;;;;;5065642;28;20198;-86
2021/12/28 05:59:11;;;;;;;0.20;0.20;;;8.80;99.90;;;;;;5059759;28;20664;-85
2021/12/28 06:01:37;;;;;;;0.10;0.10;;;8.80;99.90;;;;;;5061236;28;20196;-85
2021/12/28 06:04:03;;;;;;;0.63;0.63;;;8.80;99.90;;;;;;5061594;28;20184;-86
2021/12/28 06:06:29;;;;;;;3.20;0.30;;;8.90;99.90;;;;;;5058708;28;21111;-85
2021/12/28 06:08:55;;;;;;;0.10;0.10;;;8.90;99.90;;;;;;5059760;28;20261;-85
2021/12/28 06:11:21;;;;;;;0.10;0.10;;;8.90;99.90;;;;;;5063460;28;20331;-86
2021/12/28 06:13:46;;;;;;;2.07;0.30;;;9.00;99.90;;;;;;5059861;28;20206;-84
2021/12/28 06:16:12;;;;;;;0.53;0.30;;;9.00;99.90;;;;;;5064506;28;20241;-85
2021/12/28 06:18:38;;;;;;;0.40;0.40;;;9.00;99.90;;;;;;5063974;28;20188;-85
2021/12/28 06:21:04;;;;;;;0.10;0.10;;;9.00;99.90;;;;;;5062518;28;20186;-84
2021/12/28 06:23:30;;;;;;;0.10;0.10;;;9.00;99.90;;;;;;5061651;28;20283;-84
2021/12/28 06:25:56;;;;;;;0.80;0.40;;;9.00;99.90;;;;;;5063168;28;20299;-84
2021/12/28 06:28:22;;;;;;;0.37;0.23;;;9.00;99.90;;;;;;5060866;28;20182;-84
2021/12/28 06:30:48;;;;;;;0.10;0.10;;;9.00;99.90;;;;;;5064567;28;20190;-83
2021/12/28 06:33:13;;;;;;;0.23;0.23;;;9.00;99.90;;;;;;5065232;28;20206;-84
2021/12/28 06:35:39;;;;;;;0.20;0.20;;;9.00;99.90;;;;;;5066007;28;20216;-84
2021/12/28 06:38:05;;;;;;;0.20;0.20;;;9.00;99.90;;;;;;5064944;28;20298;-84
2021/12/28 06:40:31;;;;;;;0.47;0.40;;;9.00;99.90;;;;;;5059777;28;20183;-84
2021/12/28 06:42:56;;;;;;;0.10;0.10;;;9.00;99.90;;;;;;5057705;28;20620;-84
2021/12/28 06:45:22;;;;;;;6.23;0.30;;;9.00;99.90;;;;;;5061058;28;20212;-84
2021/12/28 06:47:47;;;;;;;0.10;0.10;;;9.00;99.90;;;;;;5064692;28;20227;-84
2021/12/28 06:50:13;;;;;;;0.10;0.10;;;9.10;99.90;;;;;;5061998;28;20187;-84
2021/12/28 06:52:39;;;;;;;0.00;0.00;;;9.00;99.90;;;;;;5065050;28;20197;-84
2021/12/28 06:55:08;;;;;;;0.20;0.20;;;9.00;99.90;;;;;;5065955;28;20219;-83
2021/12/28 06:57:34;;;;;;;0.13;0.13;;;9.10;99.90;;;;;;5061790;28;20181;-84
2021/12/28 07:00:00;;;;;;;1.07;0.97;;;9.00;99.90;;;;;;5063956;28;20195;-84
2021/12/28 07:02:25;;;;;;;0.87;0.53;;;9.10;99.90;;;;;;5068259;28;20210;-84
2021/12/28 07:04:52;;;;;;;0.30;0.30;;;9.10;99.90;;;;;;5069063;28;20231;-83
2021/12/28 07:07:19;;;;;;;0.10;0.10;;;9.00;99.90;;;;;;5069709;28;20638;-82
2021/12/28 07:09:44;;;;;;;0.10;0.10;;;9.00;99.90;;;;;;5065189;28;20208;-84
2021/12/28 07:12:10;;;;;;;0.10;0.10;;;9.10;99.90;;;;;;5085782;28;20682;-84
2021/12/28 07:14:36;;;;;;;0.30;0.23;;;9.10;99.90;;;;;;5063979;28;20191;-84
2021/12/28 07:17:02;;;;;;;2.20;0.60;;;9.10;99.90;;;;;;5062892;28;20186;-85
2021/12/28 07:19:28;;;;;;;0.40;0.40;;;9.10;99.90;;;;;;5067327;28;20208;-83
2021/12/28 07:21:53;;;;;;;8.60;1.13;;;9.10;99.90;;;;;;5062675;28;20660;-83
2021/12/28 07:24:19;;;;;;;0.10;0.10;;;9.10;99.90;;;;;;5067975;28;20662;-84
2021/12/28 07:26:45;;;;;;;0.33;0.33;;;9.10;99.90;;;;;;5067848;28;20210;-84
2021/12/28 07:29:11;;;;;;;0.40;0.40;;;9.10;99.90;;;;;;5068269;28;20182;-84
2021/12/28 07:31:38;;;;;;;0.20;0.20;;;9.20;99.90;;;;;;5065543;28;20559;-84
2021/12/28 07:34:04;;;;;;;0.10;0.10;;;9.20;99.90;;;;;;5069918;28;20187;-84
2021/12/28 07:36:30;;;;;;;0.57;0.30;;;9.20;99.90;;;;;;5068334;28;20198;-84
2021/12/28 07:38:55;;;;;;;0.47;0.43;;;9.20;99.90;;;;;;5066955;28;20192;-84
2021/12/28 07:41:21;;;;;;;0.10;0.10;;;9.10;99.90;;;;;;5063891;28;20219;-85
2021/12/28 07:43:47;;;;;;;0.23;0.23;;;9.10;99.90;;;;;;5067699;28;20553;-84
2021/12/28 07:46:12;;;;;;;0.87;0.57;;;8.90;99.90;;;;;;5062810;28;20214;-84
2021/12/28 07:48:39;;;;;;;0.10;0.10;;;8.80;99.90;;;;;;5069214;28;20187;-85
2021/12/28 07:51:04;;;;;;;0.30;0.20;;;8.50;99.90;;;;;;5068281;28;20182;-84
2021/12/28 07:53:30;;;;;;;0.10;0.10;;;8.50;99.90;;;;;;5067036;28;20194;-85
2021/12/28 07:55:57;;;;;;;0.10;0.10;;;8.70;99.90;;;;;;5067542;28;20185;-83
2021/12/28 07:58:24;;;;;;;0.10;0.10;;;8.80;99.90;;;;;;5058836;28;20195;-84
2021/12/28 08:00:50;;;;;;;0.07;0.07;;;8.90;99.90;;;;;;5069236;28;20203;-84
2021/12/28 08:03:15;;;;;;;0.10;0.10;;;9.00;99.90;;;;;;5065500;28;20692;-84
2021/12/28 08:05:41;;;;;;;0.23;0.23;;;8.90;99.90;;;;;;5067739;28;20240;-84
2021/12/28 08:08:06;;;;;;;0.23;0.23;;;9.00;99.90;;;;;;5061414;28;20186;-84
2021/12/28 08:10:32;;;;;;;0.60;0.20;;;8.80;99.90;;;;;;5068922;28;20183;-84
2021/12/28 08:12:57;;;;;;;0.10;0.10;;;9.00;99.90;;;;;;5060669;28;20202;-83
2021/12/28 08:15:25;;;;;;;0.47;0.47;;;9.00;99.90;;;;;;5064171;28;20608;-84
2021/12/28 08:17:51;;;;;;;0.13;0.13;;;8.90;99.90;;;;;;5061050;28;20238;-84
2021/12/28 08:20:18;;;;;;;0.10;0.10;;;8.80;99.90;;;;;;5064938;28;20221;-84
2021/12/28 08:22:45;;;;;;;1.70;0.40;;;8.90;99.90;;;;;;5061959;28;21180;-84
2021/12/28 08:25:13;;;;;;;0.10;0.10;;;9.10;99.90;;;;;;5062423;28;20193;-84
2021/12/28 08:27:39;;;;;;;0.10;0.10;;;9.10;99.90;;;;;;5063215;28;20662;-83
2021/12/28 08:30:07;;;;;;;0.10;0.10;;;9.30;99.90;;;;;;5063488;28;20277;-85
2021/12/28 08:32:33;;;;;;;0.20;0.17;;;9.40;99.90;;;;;;5070299;28;20580;-84
2021/12/28 08:35:01;;;;;;;7.43;1.00;;;9.50;99.90;;;;;;5063861;28;20303;-85
2021/12/28 08:37:27;;;;;;;0.10;0.10;;;9.60;99.90;;;;;;5068016;28;20265;-85
2021/12/28 08:39:52;;;;;;;0.30;0.30;;;9.70;99.90;;;;;;5059011;28;20199;-84
2021/12/28 08:42:20;;;;;;;0.40;0.40;;;9.60;99.90;;;;;;5063710;28;20203;-84
2021/12/28 08:44:45;;;;;;;0.10;0.10;;;9.70;99.90;;;;;;5063110;28;20263;-84
2021/12/28 08:47:11;;;;;;;0.10;0.10;;;9.70;99.90;;;;;;5064875;28;20212;-85
2021/12/28 08:49:36;;;;;;;0.10;0.10;;;9.80;99.90;;;;;;5059261;28;20183;-85
2021/12/28 08:52:02;;;;;;;0.23;0.23;;;9.80;99.90;;;;;;5061801;28;20197;-83
2021/12/28 08:54:28;;;;;;;0.10;0.10;;;9.80;99.90;;;;;;5063790;28;20192;-83
2021/12/28 08:56:53;;;;;;;0.33;0.33;;;9.70;99.90;;;;;;5061708;28;20187;-83
2021/12/28 08:59:19;;;;;;;0.10;0.10;;;9.80;99.90;;;;;;5064614;28;20207;-85
2021/12/28 09:01:46;;;;;;;0.10;0.10;;;9.80;99.90;;;;;;5062737;28;20207;-85
2021/12/28 09:04:12;;;;;;;0.10;0.10;;;9.80;99.90;;;;;;5081750;28;20299;-85
2021/12/28 09:06:38;;;;;;;0.33;0.30;;;9.90;99.90;;;;;;5060051;28;20283;-83
2021/12/28 09:09:04;;;;;;;0.10;0.10;;;10.00;99.90;;;;;;5060982;28;20229;-85
2021/12/28 09:11:29;;;;;;;0.00;0.00;;;10.10;99.90;;;;;;5059843;28;20697;-85
2021/12/28 09:13:55;;;;;;;0.30;0.30;;;10.10;99.90;;;;;;5063693;28;20198;-85
2021/12/28 09:16:22;;;;;;;0.33;0.33;;;10.20;99.90;;;;;;5061477;28;20187;-85
2021/12/28 09:18:48;;;;;;;0.50;0.10;;;10.10;99.90;;;;;;5059762;28;20223;-84
2021/12/28 09:21:14;;;;;;;0.10;0.10;;;10.00;99.90;;;;;;5062499;28;20246;-84
2021/12/28 09:23:40;;;;;;;0.20;0.20;;;10.10;99.90;;;;;;5060502;28;20193;-85
2021/12/28 09:26:05;;;;;;;0.47;0.20;;;10.00;99.90;;;;;;5060020;28;20335;-85
2021/12/28 09:28:31;;;;;;;0.10;0.10;;;10.10;99.90;;;;;;5059759;28;20255;-84
2021/12/28 09:30:57;;;;;;;0.00;0.00;;;10.00;99.90;;;;;;5063302;28;20183;-85
2021/12/28 09:33:24;;;;;;;0.10;0.10;;;10.10;99.90;;;;;;5063149;28;20193;-84
2021/12/28 09:35:51;;;;;;;0.10;0.10;;;10.20;99.90;;;;;;5065845;28;20192;-85
2021/12/28 09:38:19;;;;;;;0.10;0.10;;;10.20;99.90;;;;;;5064149;28;20176;-84
2021/12/28 09:40:46;;;;;;;0.03;0.03;;;10.30;99.90;;;;;;5065269;28;20207;-85
2021/12/28 09:43:13;;;;;;;0.10;0.10;;;10.30;99.90;;;;;;5059663;28;20295;-84
2021/12/28 09:45:39;;;;;;;0.10;0.10;;;10.20;99.90;;;;;;5068078;28;20196;-81
2021/12/28 09:48:07;;;;;;;0.10;0.10;;;10.20;99.90;;;;;;5061812;28;20202;-82
2021/12/28 09:50:34;;;;;;;0.30;0.20;;;10.20;99.90;;;;;;5065611;28;20186;-81
2021/12/28 09:53:00;;;;;;;0.93;0.93;;;10.30;99.90;;;;;;5065427;28;20208;-80
2021/12/28 09:55:27;;;;;;;0.40;0.40;;;10.30;99.90;;;;;;5063344;28;20182;-83
2021/12/28 09:57:53;;;;;;;0.13;0.13;;;10.30;99.90;;;;;;5057247;28;20239;-85
2021/12/28 10:00:21;;;;;;;0.23;0.23;;;10.30;99.90;;;;;;5058858;28;20184;-84
2021/12/28 10:02:47;;;;;;;0.10;0.10;;;10.30;99.90;;;;;;5064772;28;20199;-84
2021/12/28 10:05:16;;;;;;;0.10;0.10;;;10.40;99.90;;;;;;5065535;28;20188;-84
2021/12/28 10:07:49;;;;;;;0.10;0.10;;;10.40;99.90;;;;;;5062979;28;20208;-84
2021/12/28 10:10:15;;;;;;;0.07;0.07;;;10.40;99.90;;;;;;5081054;28;20287;-84
2021/12/28 10:12:44;;;;;;;0.10;0.10;;;10.50;99.90;;;;;;5064432;28;20681;-85
2021/12/28 10:15:23;;;;;;;0.20;0.20;;;10.50;99.90;;;;;;5062439;28;20715;-84
2021/12/28 10:17:51;;;;;;;0.10;0.10;;;10.50;99.90;;;;;;5063805;28;20184;-84
2021/12/28 10:20:27;;;;;;;0.30;0.13;;;10.50;99.90;;;;;;5065157;28;20264;-84
2021/12/28 10:22:58;;;;;;;0.10;0.10;;;10.50;99.90;;;;;;5058290;28;20585;-84
2021/12/28 10:25:26;;;;;;;0.13;0.13;;;10.60;99.90;;;;;;5063690;28;20181;-84
2021/12/28 10:27:57;;;;;;;1.47;0.67;;;10.50;99.90;;;;;;5064644;28;20219;-84
2021/12/28 10:30:28;;;;;;;0.20;0.20;;;10.50;99.90;;;;;;5065608;28;20654;-84
2021/12/28 10:33:00;;;;;;;0.20;0.20;;;10.60;99.90;;;;;;5064603;28;20220;-84
2021/12/28 10:35:28;;;;;;;0.10;0.10;;;10.70;99.90;;;;;;5063329;28;20558;-84
2021/12/28 10:38:01;;;;;;;0.10;0.10;;;10.70;99.90;;;;;;5068006;28;20527;-84
2021/12/28 10:40:30;;;;;;;0.20;0.20;;;10.70;99.90;;;;;;5066951;28;20636;-85
2021/12/28 10:43:15;;;;;;;0.20;0.20;;;10.80;99.90;;;;;;5067771;28;21047;-84
2021/12/28 10:45:49;;;;;;;0.10;0.10;;;11.00;99.90;;;;;;5067418;28;20181;-84
2021/12/28 10:48:18;;;;;;;0.20;0.20;;;11.00;99.90;;;;;;5071148;28;20336;-85
2021/12/28 10:51:03;;;;;;;0.10;0.10;;;11.10;99.90;;;;;;5070645;28;20645;-85
2021/12/28 10:53:36;;;;;;;0.10;0.10;;;11.10;99.90;;;;;;5070598;28;20542;-84
2021/12/28 10:56:07;;;;;;;0.10;0.10;;;10.90;99.90;;;;;;5066884;28;20218;-83
2021/12/28 10:58:41;;;;;;;0.20;0.20;;;10.90;99.90;;;;;;5068545;28;20252;-82
2021/12/28 11:01:12;;;;;;;0.13;0.13;;;10.90;99.90;;;;;;5070317;28;20187;-81
2021/12/28 11:03:40;;;;;;;0.10;0.10;;;11.00;99.90;;;;;;5069905;28;20542;-82
2021/12/28 11:06:25;;;;;;;0.10;0.10;;;11.10;99.90;;;;;;5065294;28;20243;-81
2021/12/28 11:08:57;;;;;;;0.17;0.10;;;11.10;99.90;;;;;;5064396;28;20693;-82
2021/12/28 11:11:24;;;;;;;0.47;0.20;;;11.00;99.90;;;;;;5062310;28;20296;-83
2021/12/28 11:14:13;;;;;;;0.23;0.20;;;11.10;99.90;;;;;;5069860;28;20193;-82
2021/12/28 11:16:39;;;;;;;0.13;0.13;;;11.10;99.90;;;;;;5070629;28;20188;-82
2021/12/28 11:19:09;;;;;;;2.20;2.10;;;11.20;99.90;;;;;;5071348;28;20584;-82
2021/12/28 11:21:41;;;;;;;0.30;0.30;;;11.40;99.90;;;;;;5069654;28;20204;-82
2021/12/28 11:24:10;;;;;;;1.00;0.23;;;11.40;99.90;;;;;;5065483;28;20188;-85
2021/12/28 11:26:40;;;;;;;0.10;0.10;;;11.40;99.90;;;;;;5064514;28;20201;-85
2021/12/28 11:29:15;;;;;;;0.10;0.10;;;11.40;99.90;;;;;;5067607;28;20185;-85
2021/12/28 11:31:47;;;;;;;0.20;0.20;;;11.40;99.90;;;;;;5063735;28;20670;-85
2021/12/28 11:34:24;;;;;;;0.17;0.17;;;11.30;99.90;;;;;;5067363;28;20215;-85
2021/12/28 11:37:12;;;;;;;0.60;0.50;;;11.40;99.90;;;;;;5065284;28;20208;-85
2021/12/28 11:39:57;;;;;;;0.20;0.20;;;11.50;99.90;;;;;;5068132;28;20605;-84
2021/12/28 11:42:23;;;;;;;0.20;0.20;;;11.60;99.90;;;;;;5061078;28;20213;-85
2021/12/28 11:44:50;;;;;;;0.30;0.20;;;11.70;99.90;;;;;;5063612;28;20224;-86
2021/12/28 11:47:17;;;;;;;0.20;0.20;;;11.70;99.90;;;;;;5062412;28;20220;-84
2021/12/28 11:49:45;;;;;;;0.37;0.37;;;11.60;99.90;;;;;;5065478;28;20737;-85
2021/12/28 11:52:15;;;;;;;0.80;0.80;;;11.60;99.90;;;;;;5067279;28;20205;-85
2021/12/28 11:54:44;;;;;;;0.20;0.20;;;11.60;99.90;;;;;;5066301;28;20635;-85
2021/12/28 11:57:16;;;;;;;0.53;0.53;;;11.40;99.90;;;;;;5066022;28;20189;-85
2021/12/28 11:59:53;;;;;;;0.57;0.57;;;11.30;99.90;;;;;;5063246;28;20204;-82
2021/12/28 12:02:18;;;;;;;0.20;0.20;;;11.30;99.90;;;;;;5059531;28;20219;-82
2021/12/28 12:04:51;;;;;;;0.17;0.17;;;11.10;99.90;;;;;;5067748;28;20189;-81
2021/12/28 12:07:16;;;;;;;0.20;0.20;;;11.10;99.90;;;;;;5064728;28;20209;-82
2021/12/28 12:09:57;;;;;;;0.20;0.20;;;11.10;99.90;;;;;;5067349;28;20183;-82
2021/12/28 12:12:33;;;;;;;0.10;0.10;;;11.10;99.90;;;;;;5061129;28;20258;-81
2021/12/28 12:14:58;;;;;;;0.43;0.30;;;11.10;99.90;;;;;;5066096;28;20176;-81
2021/12/28 12:17:37;;;;;;;0.27;0.27;;;11.10;99.90;;;;;;5065493;28;20188;-82
2021/12/28 12:20:15;;;;;;;0.10;0.10;;;11.10;99.90;;;;;;5065913;28;20176;-82
2021/12/28 12:22:43;;;;;;;0.30;0.30;;;11.10;99.90;;;;;;5064534;28;20270;-82
2021/12/28 12:25:15;;;;;;;0.20;0.20;;;11.20;99.90;;;;;;5065915;28;20271;-82
2021/12/28 12:27:54;;;;;;;0.30;0.30;;;11.20;99.90;;;;;;5064562;28;20293;-82
2021/12/28 12:30:28;;;;;;;0.10;0.10;;;11.20;99.90;;;;;;5065166;28;20177;-82
2021/12/28 12:33:07;;;;;;;0.50;0.50;;;11.20;99.90;;;;;;5064145;28;20207;-82
2021/12/28 12:35:33;;;;;;;0.30;0.30;;;11.10;99.90;;;;;;5065174;28;20671;-82
2021/12/28 12:38:00;;;;;;;0.30;0.30;;;11.00;99.90;;;;;;5065871;28;20185;-82
2021/12/28 12:41:08;;;;;;;0.63;0.40;;;10.90;99.90;;;;;;5060816;28;20216;-83
2021/12/28 12:43:39;;;;;;;0.20;0.20;;;11.00;99.90;;;;;;5063087;28;20193;-82
2021/12/28 12:46:28;;;;;;;0.20;0.20;;;10.90;99.90;;;;;;5068684;28;20204;-82
2021/12/28 12:48:53;;;;;;;0.10;0.10;;;11.00;99.90;;;;;;5082206;28;20219;-82
2021/12/28 12:51:19;;;;;;;0.83;0.20;;;11.00;99.90;;;;;;5068828;28;20235;-81
2021/12/28 12:53:58;;;;;;;0.20;0.20;;;11.10;99.90;;;;;;5060794;28;20226;-82
2021/12/28 12:56:28;;;;;;;0.90;0.40;;;11.20;99.90;;;;;;5062041;28;20206;-82
2021/12/28 12:59:03;;;;;;;0.20;0.20;;;11.20;99.90;;;;;;5064161;28;20196;-81